Time;durP1;ratioP1;P1;durP2;ratioP2;P2;SDS_P1;SDS_P2;PMS_P1;PMS_P2;Temp;Humidity;BMP_temperature;BMP_pressure;BME280_temperature;BME280_humidity;BME280_pressure;Samples;Min_cycle;Max_cycle;Signal;HPM_P1;HPM_P2
2023/01/01 00:01:06;;;;;;;20.90;12.70;;;11.00;48.30;;;;;;5048736;28;45999;-68
2023/01/01 00:03:31;;;;;;;23.10;14.07;;;11.00;48.20;;;;;;5046184;28;46731;-68
2023/01/01 00:05:57;;;;;;;27.80;15.90;;;11.00;48.30;;;;;;5046721;28;46403;-68
2023/01/01 00:08:22;;;;;;;29.47;16.57;;;11.00;48.30;;;;;;5051526;28;46467;-68
2023/01/01 00:10:48;;;;;;;30.80;18.10;;;11.10;48.10;;;;;;5044705;28;46458;-68
2023/01/01 00:13:14;;;;;;;37.23;19.10;;;11.10;47.80;;;;;;5050799;28;46414;-68
2023/01/01 00:15:39;;;;;;;35.13;20.10;;;11.20;47.80;;;;;;5042256;28;46487;-67
2023/01/01 00:18:05;;;;;;;42.73;20.80;;;11.30;47.60;;;;;;5048268;28;46534;-67
2023/01/01 00:20:30;;;;;;;31.50;18.93;;;11.30;47.30;;;;;;5046673;28;46995;-68
2023/01/01 00:22:56;;;;;;;33.67;18.27;;;11.30;47.30;;;;;;5048003;28;46361;-68
2023/01/01 00:25:23;;;;;;;31.70;16.97;;;11.30;47.20;;;;;;5050300;28;46612;-68
2023/01/01 00:27:48;;;;;;;28.43;16.10;;;11.40;46.90;;;;;;5048645;28;45927;-67
2023/01/01 00:30:14;;;;;;;31.93;17.00;;;11.40;46.70;;;;;;5047706;28;46653;-68
2023/01/01 00:32:39;;;;;;;48.50;26.80;;;11.50;46.70;;;;;;5048383;28;46392;-68
2023/01/01 00:35:05;;;;;;;53.70;28.57;;;11.30;46.50;;;;;;5044951;28;46711;-68
2023/01/01 00:37:31;;;;;;;54.07;31.60;;;11.10;46.70;;;;;;5043658;28;46408;-68
2023/01/01 00:39:57;;;;;;;49.87;27.63;;;11.00;47.00;;;;;;5048933;28;47181;-68
2023/01/01 00:42:22;;;;;;;44.80;24.90;;;10.90;47.30;;;;;;5045753;28;46607;-67
2023/01/01 00:44:48;;;;;;;41.80;22.57;;;10.80;47.40;;;;;;5046044;28;46405;-68
2023/01/01 00:47:13;;;;;;;31.40;18.50;;;10.80;47.50;;;;;;5048218;28;46430;-68
2023/01/01 00:49:39;;;;;;;34.93;20.60;;;10.80;47.40;;;;;;5045186;28;47053;-67
2023/01/01 00:52:05;;;;;;;32.87;18.20;;;10.90;47.40;;;;;;5047492;28;46534;-68
2023/01/01 00:54:30;;;;;;;28.80;17.43;;;10.80;47.20;;;;;;5044931;28;46515;-67
2023/01/01 00:56:56;;;;;;;28.70;18.03;;;10.90;47.20;;;;;;5048515;28;46433;-68
2023/01/01 00:59:22;;;;;;;88.40;42.80;;;10.90;47.10;;;;;;5049453;28;46133;-68
2023/01/01 01:01:48;;;;;;;93.97;48.13;;;10.90;47.10;;;;;;5048052;28;45905;-68
2023/01/01 01:04:13;;;;;;;55.20;30.97;;;10.80;47.10;;;;;;5044725;28;46395;-68
2023/01/01 01:06:39;;;;;;;50.93;28.70;;;10.70;47.20;;;;;;5045548;28;46750;-68
2023/01/01 01:09:06;;;;;;;49.83;29.70;;;10.70;47.20;;;;;;5046949;28;47073;-67
2023/01/01 01:11:32;;;;;;;43.37;24.40;;;10.60;47.20;;;;;;5051293;28;46572;-68
2023/01/01 01:13:58;;;;;;;41.73;22.87;;;10.60;47.30;;;;;;5050757;28;46434;-68
2023/01/01 01:16:29;;;;;;;37.20;22.50;;;10.60;47.20;;;;;;5047950;28;45940;-68
2023/01/01 01:18:59;;;;;;;36.10;19.50;;;10.60;47.30;;;;;;5043445;28;46933;-67
2023/01/01 01:21:26;;;;;;;36.77;20.00;;;10.50;47.20;;;;;;5049740;28;46463;-68
2023/01/01 01:23:53;;;;;;;32.88;19.73;;;10.50;47.30;;;;;;5045535;28;46425;-67
2023/01/01 01:26:23;;;;;;;32.57;19.13;;;10.50;47.70;;;;;;5048362;28;46502;-68
2023/01/01 01:28:50;;;;;;;23.10;14.27;;;10.40;48.10;;;;;;5046974;28;46522;-68
2023/01/01 01:31:17;;;;;;;28.33;17.93;;;10.40;48.00;;;;;;5047083;28;45868;-68
2023/01/01 01:33:44;;;;;;;27.00;16.90;;;10.40;47.90;;;;;;5049679;28;45813;-69
2023/01/01 01:36:11;;;;;;;29.63;16.33;;;10.40;47.90;;;;;;5046388;28;45860;-68
2023/01/01 01:38:36;;;;;;;21.87;13.33;;;10.30;47.90;;;;;;5046975;28;46521;-68
2023/01/01 01:41:03;;;;;;;31.87;15.40;;;10.30;47.80;;;;;;5049306;28;46495;-69
2023/01/01 01:43:31;;;;;;;26.60;15.73;;;10.30;48.00;;;;;;5046570;28;46447;-68
2023/01/01 01:46:11;;;;;;;33.00;18.30;;;10.30;47.90;;;;;;5046380;28;46305;-68
2023/01/01 01:48:42;;;;;;;31.27;17.60;;;10.10;48.00;;;;;;5045519;28;46187;-67
2023/01/01 01:51:10;;;;;;;29.50;16.30;;;10.10;48.30;;;;;;5043213;28;46600;-67
2023/01/01 01:53:40;;;;;;;30.53;17.93;;;10.00;48.20;;;;;;5045691;28;46406;-67
2023/01/01 01:56:10;;;;;;;22.00;12.40;;;10.00;48.30;;;;;;5045575;28;46275;-67
2023/01/01 01:58:36;;;;;;;19.03;10.87;;;10.00;48.30;;;;;;5045562;28;47100;-67
2023/01/01 02:01:02;;;;;;;17.57;9.13;;;10.10;48.10;;;;;;5046160;28;46526;-67
2023/01/01 02:03:58;;;;;;;16.77;9.40;;;10.30;47.90;;;;;;5044835;28;46441;-66
2023/01/01 02:06:28;;;;;;;14.60;8.60;;;10.30;47.50;;;;;;5042907;28;46422;-67
2023/01/01 02:08:56;;;;;;;14.57;8.23;;;10.40;47.40;;;;;;5045875;28;47227;-67
2023/01/01 02:11:22;;;;;;;16.30;9.30;;;10.40;47.30;;;;;;5045736;28;45937;-67
2023/01/01 02:13:48;;;;;;;17.90;9.60;;;10.40;47.40;;;;;;5043340;28;46036;-67
2023/01/01 02:16:38;;;;;;;27.17;9.90;;;10.40;47.60;;;;;;5047335;28;45835;-67
2023/01/01 02:19:33;;;;;;;16.00;8.30;;;10.40;47.70;;;;;;5041936;28;46504;-68
2023/01/01 02:22:27;;;;;;;15.47;9.47;;;10.40;47.80;;;;;;5018697;28;45990;-68
2023/01/01 02:25:11;;;;;;;16.53;8.73;;;10.30;46.90;;;;;;5041510;28;46365;-68
2023/01/01 02:27:54;;;;;;;14.87;8.80;;;10.30;47.90;;;;;;5043371;28;46266;-68
2023/01/01 02:30:20;;;;;;;13.70;8.73;;;10.40;48.10;;;;;;5046856;28;47135;-68
2023/01/01 02:32:50;;;;;;;11.80;7.13;;;10.30;48.00;;;;;;5043827;28;45772;-67
2023/01/01 02:35:41;;;;;;;13.77;7.80;;;10.30;48.00;;;;;;5042220;28;46506;-67
2023/01/01 02:38:13;;;;;;;17.30;7.43;;;10.30;47.90;;;;;;5048845;28;46384;-68
2023/01/01 02:40:45;;;;;;;13.60;6.83;;;10.40;47.90;;;;;;5040899;28;46549;-67
2023/01/01 02:43:11;;;;;;;10.97;6.97;;;10.40;47.80;;;;;;5041692;28;46451;-68
2023/01/01 02:45:36;;;;;;;11.73;6.30;;;10.40;47.70;;;;;;5042617;28;46538;-67
2023/01/01 02:48:05;;;;;;;12.30;7.33;;;10.40;47.70;;;;;;5044892;28;46032;-67
2023/01/01 02:50:32;;;;;;;11.37;6.90;;;10.40;47.70;;;;;;5046219;28;47086;-68
2023/01/01 02:53:05;;;;;;;13.00;7.60;;;10.40;47.70;;;;;;5040213;28;45889;-67
2023/01/01 02:55:40;;;;;;;12.87;7.30;;;10.50;47.70;;;;;;5040276;28;46685;-67
2023/01/01 03:01:19;;;;;;;10.80;6.33;;;10.40;47.80;;;;;;5045761;28;46313;-68
2023/01/01 03:04:04;;;;;;;17.57;8.50;;;10.40;48.00;;;;;;5046104;28;46472;-67
2023/01/01 03:06:41;;;;;;;10.70;6.20;;;10.40;49.20;;;;;;5036471;28;46697;-67
2023/01/01 03:09:26;;;;;;;13.10;6.73;;;10.40;48.00;;;;;;5046082;28;46365;-68
2023/01/01 03:12:10;;;;;;;10.83;6.57;;;10.40;48.60;;;;;;5046397;28;46624;-67
2023/01/01 03:15:01;;;;;;;13.70;6.47;;;10.30;48.00;;;;;;5044231;28;46425;-67
2023/01/01 03:18:09;;;;;;;9.60;6.03;;;10.30;48.10;;;;;;5041795;28;46346;-67
2023/01/01 03:20:41;;;;;;;10.10;5.60;;;10.30;48.10;;;;;;5045600;28;46408;-67
2023/01/01 03:23:11;;;;;;;10.00;6.70;;;10.30;47.90;;;;;;5043298;28;46715;-68
2023/01/01 03:25:45;;;;;;;9.17;5.60;;;10.30;47.80;;;;;;5041514;28;46335;-67
2023/01/01 03:28:17;;;;;;;10.50;6.03;;;10.40;47.70;;;;;;5042564;28;46497;-68
2023/01/01 03:30:46;;;;;;;12.40;5.90;;;10.40;47.70;;;;;;5045597;28;46483;-67
2023/01/01 03:33:17;;;;;;;9.27;5.80;;;10.40;47.60;;;;;;5045431;28;46403;-67
2023/01/01 03:35:48;;;;;;;8.73;4.93;;;10.40;47.70;;;;;;5044428;28;46491;-67
2023/01/01 03:38:23;;;;;;;11.23;5.80;;;10.40;47.70;;;;;;5041407;28;46450;-67
2023/01/01 03:40:53;;;;;;;11.57;6.13;;;10.40;47.70;;;;;;5043601;28;46452;-67
2023/01/01 03:43:48;;;;;;;12.73;5.80;;;10.40;47.90;;;;;;5044534;28;46425;-67
2023/01/01 03:46:18;;;;;;;9.53;5.60;;;10.30;47.70;;;;;;5035987;28;46784;-68
2023/01/01 03:48:56;;;;;;;10.73;5.90;;;10.30;49.00;;;;;;5045526;28;46495;-67
2023/01/01 03:51:40;;;;;;;11.00;5.80;;;10.30;47.80;;;;;;5044825;28;46436;-69
2023/01/01 03:54:30;;;;;;;9.50;5.73;;;10.30;47.70;;;;;;5045162;28;46775;-68
2023/01/01 03:57:17;;;;;;;10.10;5.13;;;10.30;47.90;;;;;;5045380;28;46379;-68
2023/01/01 03:59:57;;;;;;;10.40;5.43;;;10.30;48.20;;;;;;5041418;28;46444;-67
2023/01/01 04:02:30;;;;;;;10.77;5.57;;;10.20;48.20;;;;;;5044712;28;46512;-68
2023/01/01 04:04:58;;;;;;;7.93;4.33;;;10.20;48.40;;;;;;5041513;28;47167;-68
2023/01/01 04:07:24;;;;;;;9.10;4.60;;;10.20;48.40;;;;;;5045632;28;46427;-68
2023/01/01 04:09:52;;;;;;;9.33;4.30;;;10.10;48.40;;;;;;5039638;28;45951;-66
2023/01/01 04:12:18;;;;;;;8.07;4.40;;;10.10;48.60;;;;;;5045527;28;46515;-66
2023/01/01 04:14:44;;;;;;;9.30;5.03;;;10.10;48.60;;;;;;5044397;28;46576;-68
2023/01/01 04:17:10;;;;;;;6.83;4.40;;;10.10;48.70;;;;;;5046007;28;45787;-68
2023/01/01 04:19:36;;;;;;;7.43;4.27;;;10.10;48.60;;;;;;5046157;28;46436;-68
2023/01/01 04:22:03;;;;;;;7.30;4.27;;;10.10;48.60;;;;;;5042808;28;46466;-66
2023/01/01 04:24:29;;;;;;;7.40;4.33;;;10.10;48.60;;;;;;5046908;28;46608;-68
2023/01/01 04:26:55;;;;;;;10.77;4.43;;;10.10;48.50;;;;;;5047210;28;45839;-68
2023/01/01 04:29:21;;;;;;;7.33;4.73;;;10.10;48.40;;;;;;5046167;28;46668;-69
2023/01/01 04:31:47;;;;;;;7.30;4.23;;;10.30;48.30;;;;;;5048516;28;46247;-68
2023/01/01 04:34:14;;;;;;;12.40;4.37;;;10.40;46.70;;;;;;5045088;28;47854;-67
2023/01/01 04:36:40;;;;;;;6.57;4.20;;;10.40;47.80;;;;;;5047964;28;46376;-68
2023/01/01 04:39:05;;;;;;;8.60;4.40;;;10.40;47.60;;;;;;5047700;28;46417;-67
2023/01/01 04:41:31;;;;;;;9.50;4.27;;;10.40;47.70;;;;;;5046287;28;46535;-67
2023/01/01 04:43:57;;;;;;;7.63;4.43;;;10.30;47.90;;;;;;5043739;28;46793;-68
2023/01/01 04:46:23;;;;;;;10.77;5.13;;;10.20;48.10;;;;;;5046552;28;46392;-68
2023/01/01 04:48:49;;;;;;;11.47;5.30;;;10.10;48.10;;;;;;5049917;28;46424;-67
2023/01/01 04:51:17;;;;;;;12.60;5.37;;;10.10;48.40;;;;;;5045133;28;46588;-67
2023/01/01 04:53:43;;;;;;;7.50;5.13;;;10.10;48.50;;;;;;5043905;28;46479;-67
2023/01/01 04:56:17;;;;;;;9.10;4.83;;;10.00;48.60;;;;;;5048087;28;45913;-67
2023/01/01 04:58:43;;;;;;;5.27;3.40;;;10.00;48.70;;;;;;5044383;28;46286;-68
2023/01/01 05:01:21;;;;;;;11.70;4.40;;;10.00;48.80;;;;;;5049937;28;46380;-67
2023/01/01 05:03:47;;;;;;;7.97;3.97;;;10.00;48.90;;;;;;5047990;28;46728;-68
2023/01/01 05:06:13;;;;;;;8.37;4.17;;;9.90;49.80;;;;;;5047900;28;46472;-68
2023/01/01 05:08:42;;;;;;;8.03;4.20;;;9.90;50.00;;;;;;5045373;28;46378;-67
2023/01/01 05:11:16;;;;;;;6.53;4.10;;;9.90;50.00;;;;;;5046691;28;46448;-67
2023/01/01 05:13:44;;;;;;;10.07;4.83;;;9.90;50.10;;;;;;5045548;28;46386;-67
2023/01/01 05:16:13;;;;;;;8.40;4.57;;;9.80;50.10;;;;;;5044879;28;46435;-67
2023/01/01 05:18:40;;;;;;;5.90;3.40;;;9.80;50.00;;;;;;5045976;28;46417;-67
2023/01/01 05:21:09;;;;;;;9.20;5.00;;;9.90;50.00;;;;;;5048741;28;46365;-67
2023/01/01 05:23:35;;;;;;;8.07;4.90;;;9.90;50.00;;;;;;5046292;28;46156;-68
2023/01/01 05:26:11;;;;;;;11.33;5.27;;;9.90;49.80;;;;;;5046107;28;46377;-67
2023/01/01 05:28:37;;;;;;;6.10;3.90;;;10.00;48.50;;;;;;5044749;28;46622;-66
2023/01/01 05:31:14;;;;;;;7.13;4.40;;;10.10;48.30;;;;;;5048462;28;46488;-67
2023/01/01 05:33:40;;;;;;;11.83;4.13;;;10.20;48.10;;;;;;5045189;28;46477;-67
2023/01/01 05:36:08;;;;;;;6.60;4.00;;;10.30;48.00;;;;;;5048088;28;46470;-67
2023/01/01 05:38:34;;;;;;;5.70;3.83;;;10.40;47.90;;;;;;5045288;28;46485;-67
2023/01/01 05:41:07;;;;;;;7.23;4.17;;;10.40;47.70;;;;;;5046939;28;46484;-67
2023/01/01 05:43:34;;;;;;;6.47;4.40;;;10.30;47.60;;;;;;5046318;28;46526;-67
2023/01/01 05:46:09;;;;;;;6.80;4.20;;;10.30;47.90;;;;;;5047785;28;46394;-66
2023/01/01 05:48:37;;;;;;;6.00;3.60;;;10.20;48.00;;;;;;5043778;28;46372;-68
2023/01/01 05:51:03;;;;;;;8.20;4.20;;;10.20;48.10;;;;;;5047944;28;46517;-67
2023/01/01 05:53:29;;;;;;;6.47;4.17;;;10.20;48.00;;;;;;5044187;28;46436;-67
2023/01/01 05:55:56;;;;;;;14.87;4.13;;;10.20;48.00;;;;;;5045174;28;46570;-67
2023/01/01 05:58:21;;;;;;;5.83;3.97;;;10.30;48.10;;;;;;5049803;28;46436;-67
2023/01/01 06:00:47;;;;;;;8.50;4.37;;;10.20;47.80;;;;;;5042190;28;46122;-67
2023/01/01 06:03:12;;;;;;;6.77;4.10;;;10.30;47.80;;;;;;5046964;28;46895;-67
2023/01/01 06:05:38;;;;;;;7.53;4.50;;;10.70;49.40;;;;;;5043196;28;46381;-67
2023/01/01 06:08:04;;;;;;;7.80;4.47;;;10.20;48.00;;;;;;5046582;28;46441;-67
2023/01/01 06:10:29;;;;;;;10.83;4.83;;;10.10;48.30;;;;;;5045791;28;46862;-67
2023/01/01 06:12:58;;;;;;;8.80;4.77;;;9.90;50.70;;;;;;5046043;28;46473;-67
2023/01/01 06:15:25;;;;;;;10.10;5.40;;;9.50;50.20;;;;;;5044149;28;46428;-66
2023/01/01 06:17:50;;;;;;;9.00;4.80;;;9.10;51.00;;;;;;5044687;28;46445;-67
2023/01/01 06:20:16;;;;;;;13.43;5.50;;;8.80;51.60;;;;;;5043804;28;46227;-66
2023/01/01 06:22:42;;;;;;;8.90;5.33;;;8.60;51.50;;;;;;5047974;28;46553;-67
2023/01/01 06:25:08;;;;;;;10.17;4.87;;;8.50;51.30;;;;;;5045011;28;46370;-66
2023/01/01 06:27:35;;;;;;;7.27;4.33;;;8.40;51.60;;;;;;5045677;28;46436;-66
2023/01/01 06:30:06;;;;;;;10.07;5.03;;;8.40;51.30;;;;;;5045085;28;46570;-67
2023/01/01 06:32:33;;;;;;;7.53;4.33;;;8.40;51.20;;;;;;5048900;28;46334;-68
2023/01/01 06:34:59;;;;;;;10.25;5.10;;;8.50;51.30;;;;;;5044773;28;46309;-66
2023/01/01 06:37:24;;;;;;;7.07;4.00;;;8.50;51.30;;;;;;5048214;28;46598;-68
2023/01/01 06:39:50;;;;;;;8.40;4.93;;;8.50;51.30;;;;;;5045612;28;46404;-67
2023/01/01 06:42:16;;;;;;;7.70;4.70;;;8.60;51.40;;;;;;5044589;28;47144;-67
2023/01/01 06:44:41;;;;;;;7.43;4.77;;;8.60;51.40;;;;;;5045046;28;46397;-67
2023/01/01 06:47:07;;;;;;;8.80;4.70;;;8.70;51.60;;;;;;5042988;28;46500;-67
2023/01/01 06:49:33;;;;;;;7.00;4.00;;;8.70;51.50;;;;;;5045933;28;46520;-66
2023/01/01 06:51:58;;;;;;;9.37;5.70;;;8.70;51.50;;;;;;5044294;28;47072;-68
2023/01/01 06:54:24;;;;;;;8.50;5.27;;;8.70;51.50;;;;;;5036672;28;45897;-67
2023/01/01 06:56:50;;;;;;;6.57;4.50;;;8.70;51.50;;;;;;5047252;28;45984;-67
2023/01/01 06:59:16;;;;;;;13.40;4.80;;;8.70;51.50;;;;;;5045895;28;46406;-67
2023/01/01 07:01:42;;;;;;;11.93;5.80;;;8.70;51.50;;;;;;5044865;28;46440;-67
2023/01/01 07:04:11;;;;;;;7.50;4.77;;;8.70;50.50;;;;;;5043717;28;46388;-67
2023/01/01 07:06:38;;;;;;;8.00;4.80;;;8.70;51.50;;;;;;5048063;28;46425;-67
2023/01/01 07:09:05;;;;;;;9.50;5.40;;;8.60;51.40;;;;;;5042505;28;46500;-67
2023/01/01 07:11:31;;;;;;;7.83;5.40;;;8.60;51.40;;;;;;5042329;28;49172;-67
2023/01/01 07:13:56;;;;;;;8.57;5.32;;;8.50;51.30;;;;;;5044794;28;46380;-67
2023/01/01 07:16:23;;;;;;;10.27;5.57;;;8.80;51.60;;;;;;5044268;28;45948;-66
2023/01/01 07:18:49;;;;;;;11.65;5.88;;;8.80;51.60;;;;;;5043080;28;46505;-67
2023/01/01 07:21:31;;;;;;;7.97;4.43;;;8.80;51.60;;;;;;5046268;28;46461;-67
2023/01/01 07:24:02;;;;;;;8.40;4.97;;;8.80;51.60;;;;;;5042990;28;46320;-67
2023/01/01 07:26:29;;;;;;;9.07;4.90;;;8.90;52.90;;;;;;5043355;28;46442;-66
2023/01/01 07:28:55;;;;;;;14.83;5.10;;;8.90;51.70;;;;;;5046523;28;46717;-67
2023/01/01 07:31:20;;;;;;;8.43;5.03;;;9.00;51.80;;;;;;5045747;28;46643;-67
2023/01/01 07:33:46;;;;;;;10.17;5.50;;;9.00;51.80;;;;;;5042228;28;46417;-69
2023/01/01 07:36:12;;;;;;;14.07;6.53;;;9.00;51.80;;;;;;5044601;28;46393;-69
2023/01/01 07:38:38;;;;;;;8.83;4.97;;;9.10;51.80;;;;;;5043336;28;46418;-69
2023/01/01 07:41:04;;;;;;;6.70;4.57;;;9.10;51.90;;;;;;5044664;28;46435;-69
2023/01/01 07:43:29;;;;;;;8.37;5.40;;;9.10;51.80;;;;;;5042063;28;46441;-69
2023/01/01 07:45:56;;;;;;;10.07;5.60;;;9.10;51.80;;;;;;5040092;28;46405;-69
2023/01/01 07:48:22;;;;;;;9.80;5.07;;;9.10;51.80;;;;;;5041735;28;46652;-68
2023/01/01 07:50:49;;;;;;;8.80;5.50;;;9.00;51.80;;;;;;5042901;28;46440;-69
2023/01/01 07:53:15;;;;;;;12.33;8.80;;;9.00;51.80;;;;;;5042272;28;46513;-68
2023/01/01 07:55:40;;;;;;;10.57;6.07;;;9.00;51.80;;;;;;5043267;28;46632;-68
2023/01/01 07:58:06;;;;;;;10.73;5.17;;;9.00;51.80;;;;;;5043927;28;46001;-68
2023/01/01 08:00:31;;;;;;;8.10;4.60;;;9.20;51.90;;;;;;5042314;28;46766;-68
2023/01/01 08:02:57;;;;;;;12.40;4.87;;;9.30;52.10;;;;;;5047108;28;46445;-69
2023/01/01 08:05:23;;;;;;;7.07;3.90;;;9.40;52.10;;;;;;5047620;28;46535;-68
2023/01/01 08:07:50;;;;;;;11.67;4.60;;;9.60;52.20;;;;;;5047873;28;46491;-69
2023/01/01 08:10:16;;;;;;;7.37;5.00;;;9.60;51.80;;;;;;5019563;28;46369;-68
2023/01/01 08:12:42;;;;;;;7.50;4.20;;;9.70;51.80;;;;;;5011353;28;46579;-68
2023/01/01 08:15:09;;;;;;;8.00;3.93;;;9.80;51.80;;;;;;5011093;28;46517;-68
2023/01/01 08:17:35;;;;;;;6.23;3.63;;;10.00;51.10;;;;;;5013735;28;45850;-68
2023/01/01 08:20:00;;;;;;;12.20;4.03;;;10.10;50.90;;;;;;5010661;28;46467;-69
2023/01/01 08:22:26;;;;;;;6.97;3.93;;;10.30;50.60;;;;;;5012877;28;46413;-69
2023/01/01 08:24:52;;;;;;;5.90;3.83;;;10.50;50.80;;;;;;5011392;28;46340;-69
2023/01/01 08:27:17;;;;;;;8.10;4.17;;;10.60;50.30;;;;;;5011330;28;46503;-69
2023/01/01 08:29:43;;;;;;;9.27;4.20;;;10.70;50.30;;;;;;5013388;28;47546;-69
2023/01/01 08:32:10;;;;;;;7.10;3.90;;;10.70;50.40;;;;;;5012401;28;46525;-69
2023/01/01 08:34:35;;;;;;;6.07;3.77;;;10.80;50.50;;;;;;5009909;28;46381;-69
2023/01/01 08:37:01;;;;;;;8.93;3.23;;;10.90;50.60;;;;;;5012203;28;46652;-69
2023/01/01 08:39:27;;;;;;;8.30;3.27;;;11.00;50.50;;;;;;5010387;28;47312;-69
2023/01/01 08:41:53;;;;;;;6.53;4.13;;;11.10;50.30;;;;;;5011967;28;46431;-69
2023/01/01 08:44:19;;;;;;;6.30;3.70;;;11.40;49.10;;;;;;5009651;28;46446;-68
2023/01/01 08:46:44;;;;;;;6.50;3.00;;;11.30;50.00;;;;;;5007896;28;46571;-68
2023/01/01 08:49:10;;;;;;;5.30;3.10;;;11.50;50.00;;;;;;5012412;28;46457;-67
2023/01/01 08:51:35;;;;;;;10.93;6.30;;;11.60;49.90;;;;;;5009450;28;46359;-68
2023/01/01 08:54:01;;;;;;;6.10;4.03;;;11.60;49.60;;;;;;5011618;28;46303;-69
2023/01/01 08:56:27;;;;;;;7.50;3.90;;;11.70;49.80;;;;;;5012105;28;46499;-68
2023/01/01 08:58:52;;;;;;;9.80;4.80;;;11.80;49.80;;;;;;5011138;28;47117;-68
2023/01/01 09:01:20;;;;;;;7.23;4.63;;;11.90;49.80;;;;;;5008045;28;46334;-68
2023/01/01 09:03:47;;;;;;;8.93;4.50;;;12.00;49.60;;;;;;5009801;28;46749;-69
2023/01/01 09:06:13;;;;;;;5.63;3.40;;;12.10;49.20;;;;;;5006676;28;46532;-69
2023/01/01 09:08:39;;;;;;;5.40;3.43;;;12.40;48.90;;;;;;5009092;28;46765;-69
2023/01/01 09:11:05;;;;;;;5.10;3.30;;;12.60;48.40;;;;;;5009882;28;46927;-69
2023/01/01 09:13:33;;;;;;;7.20;3.53;;;12.80;48.00;;;;;;5009607;28;46444;-69
2023/01/01 09:15:58;;;;;;;5.73;2.93;;;12.90;47.80;;;;;;5010517;28;46604;-69
2023/01/01 09:18:24;;;;;;;8.13;3.77;;;13.10;47.90;;;;;;5007391;28;46633;-69
2023/01/01 09:20:49;;;;;;;5.47;3.23;;;13.20;47.70;;;;;;5009394;28;46372;-69
2023/01/01 09:23:15;;;;;;;5.30;3.67;;;13.40;47.40;;;;;;5014870;28;46437;-69
2023/01/01 09:25:41;;;;;;;6.33;3.27;;;13.50;47.40;;;;;;5006169;28;46375;-70
2023/01/01 09:28:10;;;;;;;5.90;3.17;;;13.50;47.20;;;;;;5011406;28;46992;-69
2023/01/01 09:30:36;;;;;;;6.20;2.87;;;13.50;47.20;;;;;;5010199;28;46589;-69
2023/01/01 09:33:02;;;;;;;6.53;3.30;;;13.50;47.10;;;;;;5014032;28;46716;-69
2023/01/01 09:35:28;;;;;;;6.07;2.70;;;13.70;45.90;;;;;;5010189;28;46456;-68
2023/01/01 09:37:54;;;;;;;5.17;2.80;;;13.70;46.00;;;;;;5008259;28;47230;-68
2023/01/01 09:40:31;;;;;;;5.37;2.43;;;13.70;46.30;;;;;;5010195;28;46413;-68
2023/01/01 09:43:31;;;;;;;5.00;2.93;;;13.80;46.20;;;;;;5008874;28;46458;-68
2023/01/01 09:46:05;;;;;;;4.73;2.83;;;13.90;45.90;;;;;;5007177;28;45874;-69
2023/01/01 09:48:35;;;;;;;3.60;2.40;;;14.00;45.90;;;;;;5009308;28;46050;-68
2023/01/01 09:51:03;;;;;;;10.20;3.10;;;14.10;45.90;;;;;;5010231;28;46344;-68
2023/01/01 09:53:38;;;;;;;4.87;2.53;;;14.20;45.70;;;;;;5008441;28;46420;-68
2023/01/01 09:56:05;;;;;;;4.90;2.60;;;14.20;45.40;;;;;;5007741;28;46729;-69
2023/01/01 09:58:36;;;;;;;4.13;2.40;;;14.30;45.50;;;;;;5009130;28;46347;-68
2023/01/01 10:01:29;;;;;;;4.67;2.60;;;14.40;45.30;;;;;;5012195;28;46332;-68
2023/01/01 10:04:13;;;;;;;4.40;2.50;;;14.60;45.00;;;;;;5007487;28;46395;-68
2023/01/01 10:06:49;;;;;;;6.60;2.90;;;14.80;44.60;;;;;;5010618;28;46612;-68
2023/01/01 10:09:35;;;;;;;4.20;2.40;;;14.90;44.50;;;;;;5008350;28;47234;-70
2023/01/01 10:12:10;;;;;;;5.57;2.50;;;15.00;44.00;;;;;;5007147;28;46326;-69
2023/01/01 10:14:42;;;;;;;6.30;2.27;;;15.20;43.70;;;;;;5009691;28;46549;-69
2023/01/01 10:17:17;;;;;;;5.10;2.80;;;15.30;43.70;;;;;;5006120;28;46442;-69
2023/01/01 10:19:48;;;;;;;3.67;2.27;;;15.30;42.80;;;;;;5009503;28;46031;-68
2023/01/01 10:22:25;;;;;;;5.50;3.00;;;15.30;42.70;;;;;;5039636;28;46420;-68
2023/01/01 10:25:16;;;;;;;3.87;2.53;;;15.40;42.60;;;;;;5007782;28;45777;-68
2023/01/01 10:28:20;;;;;;;8.87;2.33;;;15.50;42.50;;;;;;5008188;28;45890;-69
2023/01/01 10:30:45;;;;;;;5.10;2.30;;;15.60;42.30;;;;;;5006494;28;46611;-68
2023/01/01 10:33:13;;;;;;;4.50;2.10;;;15.70;42.50;;;;;;5008030;28;46452;-68
2023/01/01 10:35:48;;;;;;;3.30;2.17;;;15.80;42.50;;;;;;5006895;28;46738;-68
2023/01/01 10:38:25;;;;;;;4.60;2.27;;;15.80;42.30;;;;;;5008809;28;46382;-68
2023/01/01 10:41:02;;;;;;;4.40;2.10;;;15.90;42.20;;;;;;5009674;28;46465;-68
2023/01/01 10:43:27;;;;;;;4.10;2.30;;;15.90;42.00;;;;;;5008948;28;46362;-69
2023/01/01 10:45:54;;;;;;;4.83;2.23;;;16.00;41.80;;;;;;5003015;28;46774;-69
2023/01/01 10:48:31;;;;;;;3.70;2.00;;;16.10;41.60;;;;;;5008380;28;46757;-67
2023/01/01 10:51:23;;;;;;;3.80;2.10;;;16.10;41.40;;;;;;5004514;28;46454;-65
2023/01/01 10:53:51;;;;;;;4.43;2.03;;;16.20;41.30;;;;;;5005107;28;47088;-68
2023/01/01 10:56:22;;;;;;;4.67;2.73;;;16.20;41.10;;;;;;5006943;28;46550;-70
2023/01/01 10:58:51;;;;;;;6.73;2.23;;;16.30;41.00;;;;;;5007294;28;46447;-70
2023/01/01 11:01:16;;;;;;;4.50;2.13;;;16.30;40.90;;;;;;5006702;28;46027;-70
2023/01/01 11:04:04;;;;;;;3.97;2.40;;;16.30;41.00;;;;;;5006954;28;46451;-67
2023/01/01 11:06:32;;;;;;;7.03;2.40;;;16.40;40.40;;;;;;5006102;28;46406;-69
2023/01/01 11:09:05;;;;;;;4.30;2.13;;;16.40;40.60;;;;;;5011080;28;46005;-68
2023/01/01 11:11:44;;;;;;;3.43;1.90;;;16.50;40.50;;;;;;5008167;28;46695;-67
2023/01/01 11:14:27;;;;;;;5.47;2.50;;;16.60;40.20;;;;;;5007999;28;46468;-69
2023/01/01 11:16:54;;;;;;;5.30;2.23;;;16.60;40.00;;;;;;5023398;28;46475;-69
2023/01/01 11:19:26;;;;;;;7.37;2.70;;;16.60;40.00;;;;;;5008602;28;46870;-67
2023/01/01 11:21:51;;;;;;;8.33;2.87;;;16.60;39.90;;;;;;5006820;28;47488;-67
2023/01/01 11:24:26;;;;;;;5.97;3.40;;;16.70;39.90;;;;;;5006416;28;47273;-68
2023/01/01 11:26:53;;;;;;;7.10;2.63;;;16.60;39.90;;;;;;5007580;28;46407;-67
2023/01/01 11:29:24;;;;;;;7.03;4.90;;;16.50;40.10;;;;;;5007928;28;46559;-69
2023/01/01 11:31:51;;;;;;;8.50;3.53;;;16.50;40.10;;;;;;5005435;28;46694;-68
2023/01/01 11:34:26;;;;;;;5.70;2.40;;;16.50;40.10;;;;;;5006087;28;46700;-66
2023/01/01 11:37:04;;;;;;;4.70;2.63;;;16.40;40.10;;;;;;5013022;28;46833;-68
2023/01/01 11:39:34;;;;;;;4.73;2.23;;;16.40;40.40;;;;;;5006429;28;45914;-68
2023/01/01 11:42:01;;;;;;;4.97;2.40;;;16.40;40.40;;;;;;5012044;28;46621;-68
2023/01/01 11:44:36;;;;;;;21.57;3.90;;;16.40;40.30;;;;;;5010633;28;46480;-66
2023/01/01 11:47:03;;;;;;;10.00;2.30;;;16.40;40.40;;;;;;5008695;28;46584;-67
2023/01/01 11:49:30;;;;;;;6.47;2.23;;;16.30;40.40;;;;;;5017136;28;46548;-67
2023/01/01 11:52:02;;;;;;;3.97;2.40;;;16.40;40.50;;;;;;5010175;28;47070;-67
2023/01/01 11:54:31;;;;;;;5.70;2.20;;;16.40;40.40;;;;;;5007770;28;46603;-65
2023/01/01 11:57:23;;;;;;;5.07;2.37;;;16.30;40.40;;;;;;5012103;28;46434;-65
2023/01/01 11:59:59;;;;;;;4.77;2.20;;;16.30;40.20;;;;;;5019320;28;46462;-68
2023/01/01 12:02:41;;;;;;;3.80;1.93;;;16.30;40.30;;;;;;5011802;28;46652;-67
2023/01/01 12:05:14;;;;;;;4.43;2.00;;;16.20;40.20;;;;;;4998422;28;46381;-66
2023/01/01 12:07:43;;;;;;;4.57;2.07;;;16.20;40.30;;;;;;5012857;28;46492;-67
2023/01/01 12:10:39;;;;;;;33.73;11.87;;;16.20;40.50;;;;;;5009849;28;46455;-65
2023/01/01 12:13:16;;;;;;;4.93;2.90;;;16.10;40.10;;;;;;5007455;28;47633;-66
2023/01/01 12:15:51;;;;;;;3.13;1.90;;;16.10;40.10;;;;;;5014316;28;46456;-66
2023/01/01 12:18:27;;;;;;;5.63;2.13;;;16.20;40.10;;;;;;5040661;28;46535;-67
2023/01/01 12:21:02;;;;;;;4.33;2.27;;;16.20;39.90;;;;;;5015438;28;46582;-66
2023/01/01 12:23:30;;;;;;;5.13;2.37;;;16.30;40.00;;;;;;5013326;28;47791;-65
2023/01/01 12:26:38;;;;;;;4.30;2.23;;;16.30;39.80;;;;;;5008708;28;46542;-66
2023/01/01 12:29:14;;;;;;;5.37;2.30;;;16.40;39.50;;;;;;5008432;28;46470;-67
2023/01/01 12:31:51;;;;;;;3.87;2.10;;;16.50;39.50;;;;;;5010783;28;46459;-66
2023/01/01 12:34:49;;;;;;;4.00;2.13;;;16.60;38.30;;;;;;5006859;28;46375;-67
2023/01/01 12:37:19;;;;;;;4.13;2.20;;;16.60;39.20;;;;;;5009166;28;46625;-66
2023/01/01 12:40:16;;;;;;;4.37;2.07;;;16.70;39.20;;;;;;5010669;28;46483;-66
2023/01/01 12:42:59;;;;;;;4.60;2.03;;;16.70;38.80;;;;;;5007847;28;46477;-65
2023/01/01 12:45:51;;;;;;;3.80;2.00;;;16.80;38.80;;;;;;5011019;28;47307;-66
2023/01/01 12:48:39;;;;;;;3.70;1.70;;;16.80;38.40;;;;;;5010109;28;46469;-67
2023/01/01 12:51:25;;;;;;;3.97;1.77;;;16.80;38.40;;;;;;5009656;28;47016;-66
2023/01/01 12:54:07;;;;;;;5.10;2.33;;;16.80;38.20;;;;;;5009940;28;45802;-66
2023/01/01 12:56:52;;;;;;;3.83;1.70;;;16.80;38.30;;;;;;5012024;28;46427;-66
2023/01/01 12:59:27;;;;;;;3.23;1.70;;;16.90;38.00;;;;;;5007760;28;46463;-65
2023/01/01 13:01:59;;;;;;;3.80;2.07;;;16.90;37.80;;;;;;5008958;28;46650;-66
2023/01/01 13:04:26;;;;;;;6.37;1.80;;;16.90;36.60;;;;;;5007458;28;46471;-66